• Join FlightAware (Why Join?)
  • Login
  • US Flag 
06:22AM EDT


 

Airport Tracker/Info


-or-


 

Live Flight TrackerFlight Track Log ✈ AWI3970 ✈ 27-Jun-2013 ✈ KPHL - KALB

Flight Track Log - Related Links

Times and Time Zones

All times are in EDT time to prevent confusion due to time zone crossing. See the AWI3970 flight status page for this flight to view local times or setup timezone preferences in your user account.

Time Position Orientation Groundspeed Altitude Reporting Facility
EDT Latitude Longitude Course Direction KTS MPH feet Rate Location/Type
12:10AM 39.8667 -75.2667 270° West 133 153 900  Level Philadelphia TRACON
12:11AM 39.8667 -75.3333 270° West 214 246 3,700 2,160 Climbing Philadelphia TRACON
12:12AM 39.9278 -75.3781 331° Northwest 273 314 5,400 2,460 Climbing New York Center
12:13AM 39.9886 -75.4175 334° Northwest 307 353 8,300 2,520 Climbing New York Center
12:14AM 40.0600 -75.4600 336° Northwest 301 346 10,400 1,440 Climbing New York Center
12:15AM 40.1556 -75.5208 334° Northwest 329 379 11,300 720 Climbing New York Center
12:16AM 40.2464 -75.5925 329° Northwest 359 413 11,900 900 Climbing New York Center
12:17AM 40.3069 -75.6892 309° West 377 434 13,200 1,800 Climbing New York Center
12:18AM 40.3775 -75.7950 311° West 384 442 15,500 1,860 Climbing New York Center
12:19AM 40.4414 -75.9089 306° West 364 419 17,000 720 Climbing New York Center
12:20AM 40.4669 -76.0417 284° West 364 419 17,000  Level New York Center
12:21AM 40.4878 -76.1769 281° West 399 459 17,000 1,980 Level New York Center
12:22AM 40.5083 -76.3178 281° West 405 466 21,000 1,680 Climbing New York Center
12:23AM 40.5292 -76.4506 282° West 393 452 20,500  Descending New York Center
12:24AM 40.5947 -76.5572 309° West 373 429 21,000 240 Climbing New York Center
12:25AM 40.7100 -76.5914 347° North 362 417 21,000  Level New York Center
12:26AM 40.8292 -76.6236 348° North 389 448 21,000  Level New York Center
12:27AM 40.9503 -76.6589 348° North 422 486 21,000  Level New York Center
12:28AM 41.0672 -76.6964 346° North 431 496 21,000  Level New York Center
12:29AM 41.1822 -76.7286 348° North 431 496 21,000  Level New York Center
12:30AM 41.2975 -76.7581 349° North 431 496 21,000  Level New York Center
12:31AM 41.4033 -76.6844 28° Northeast 407 468 21,000  Level New York Center
12:32AM 41.4644 -76.5403 60° Northeast 388 447 21,000  Level New York Center
12:33AM 41.5386 -76.3858 57° Northeast 415 478 21,000 -120 Level New York Center
12:34AM 41.6075 -76.2475 56° Northeast 431 496 20,800 -900 Descending New York Center
12:35AM 41.6764 -76.1086 56° Northeast 444 511 19,300 -1,680 Descending New York Center
12:36AM 41.7358 -75.9856 57° Northeast 442 509 17,500 -780 Descending New York Center
12:38AM 41.8472 -75.7594 56° Northeast 400 460 17,000 -180 Descending Boston Center
12:39AM 41.9158 -75.6236 56° Northeast 372 428 17,000  Level Boston Center
12:40AM 41.9600 -75.5308 57° Northeast 367 422 17,000  Level Boston Center
12:41AM 42.0153 -75.4217 56° Northeast 362 417 17,000  Level Boston Center
12:42AM 42.0747 -75.2931 58° Northeast 351 404 17,000 -480 Level Boston Center
12:43AM 42.1256 -75.1833 58° Northeast 346 398 16,100 -900 Descending Boston Center
12:44AM 42.1606 -75.1122 56° Northeast 339 390 15,300 -1,020 Descending Boston Center
12:45AM 42.2197 -74.9828 58° Northeast 333 383 14,100 -1,140 Descending Boston Center
12:46AM 42.2681 -74.8756 59° Northeast 333 383 13,100 -1,020 Descending Boston Center
12:47AM 42.3008 -74.7953 61° Northeast 328 377 12,400 -1,020 Descending Boston Center
12:48AM 42.3619 -74.6628 58° Northeast 319 367 11,100 -600 Descending Boston Center
12:49AM 42.4075 -74.5686 57° Northeast 298 343 11,000 -60 Descending Boston Center
12:50AM 42.4469 -74.4717 61° Northeast 267 307 11,000 -420 Level Boston Center
12:51AM 42.4836 -74.3967 56° Northeast 269 310 10,200 -1,320 Descending Boston Center
12:52AM 42.5247 -74.3022 59° Northeast 264 304 8,400 -1,920 Descending Boston Center
12:53AM 42.5386 -74.2125 78° East 240 276 6,400 -2,040 Descending Boston Center
12:54AM 42.5422 -74.1253 87° East 231 266 4,300 -1,440 Descending Boston Center
12:55AM 42.5453 -74.0464 87° East 227 261 3,700 -420 Descending Boston Center
12:56AM 42.5483 -73.9731 87° East 191 220 3,500 -360 Descending Boston Center
12:57AM 42.5556 -73.9058 82° East 186 214 3,000 -720 Descending Boston Center
12:58AM 42.5794 -73.8331 66° East 196 226 2,100 -540 Descending Boston Center
12:59AM 42.6011 -73.7686 65° Northeast 181 208 2,000 -360 Descending Boston Center
01:00AM 42.6819 -73.8042 342° North 186 214 1,400 -660 Descending Boston Center
01:01AM 42.7214 -73.8078 356° North 127 146 700 -720 Descending Boston Center
01:03AM 42.7333 -73.8000 North  Level FlightAware Approximate
01:10AM 42.7491 -73.8020 North  Level Estimated
01:11AM 42.7491 -73.8020 North  Level Estimated